Hauptseite
METAR-TAF:

METAR-TAF

Flughäfen :

Flughafen Niamey

Niamey, Niger

Breite: 13-29N, Länge: 002-10E, Höhe: 223 m

Beobachtung

Neuester Wetterbericht von vor 45 Minuten, um 05:00 UTC
Wind 1 kt aus unterschiedlichen Richtungen
Temperatur 24°C
Luftfeuchtigkeit 29%
Luftdruck 1008 hPa
Sichtweite 10 km oder mehr
keine Wolken unter 1500 m und keine Kumulonimbus oder Gewitterwolken

METAR: DRRN 120500Z VRB01KT CAVOK 24/05 Q1008 NOSIG

Zeit: 06:45 (05:45 UTC)

Prognose

Neuester Wetterbericht von vor 45 Minuten, um 05:00 UTC
Gültige Prognose vom 12 um 06 UTC bis 13 um 12 UTC
Wind 8 kt aus Ost/Nordost
Sichtweite: 8000 m
Zeitweise
vom 12 um 06 UTC bis 12 um 10 UTC
Sichtweite: 4000 m
verbreitet Staub
Zeitweise
vom 13 um 06 UTC bis 13 um 12 UTC
Sichtweite: 4000 m
verbreitet Staub

TAF: DRRN 120500Z 1206/1312 06008KT 8000 NSC TEMPO 1206/1210 4000 DU TEMPO 1306/1312 4000 DU

Wetterbeobachtungen und Prognosen von mehr als 4000 Flughäfen (METAR und TAF Bericht).

Die verfügbaren Stationen werden durch gelbe und rote Markierungen auf der Karte dargestellt.

Führen Sie die Maus auf sie, um den Namen der Station zu sehen.

Darauf klicken, um die Beobachtung von Wetterbeobachtungen und Prognosen zu sehen.

Um die Karte zu ändern : klicken Sie auf den grünen Tasten mit einem schwarzen Kreuz Zum Vergrößern, auf den grünen Button mit einem Gedankenstrich zu verkleinern, oder auf die grünen Pfeile für benachbarte Karten.


METAR-TAF: